Time;durP1;ratioP1;P1;durP2;ratioP2;P2;SDS_P1;SDS_P2;PMS_P1;PMS_P2;Temp;Humidity;BMP_temperature;BMP_pressure;BME280_temperature;BME280_humidity;BME280_pressure;Samples;Min_cycle;Max_cycle;Signal;HPM_P1;HPM_P2
2022/05/13 00:01:41;;;;;;;4.10;1.20;;;9.30;99.90;8.60;100179;;;;582141;246;24113;-79
2022/05/13 00:04:06;;;;;;;2.93;1.27;;;9.30;99.90;8.60;100186;;;;573429;246;24155;-82
2022/05/13 00:06:37;;;;;;;3.10;1.10;;;9.30;99.90;8.60;100189;;;;573820;246;24094;-80
2022/05/13 00:09:03;;;;;;;4.67;1.43;;;9.30;99.90;8.60;100187;;;;573319;246;24104;-82
2022/05/13 00:11:31;;;;;;;7.60;1.40;;;9.40;99.90;8.70;100183;;;;582415;243;24088;-82
2022/05/13 00:13:59;;;;;;;2.83;1.30;;;9.40;99.90;8.70;100177;;;;572221;242;24106;-82
2022/05/13 00:16:31;;;;;;;2.20;1.63;;;9.40;99.90;8.70;100177;;;;573785;246;24095;-81
2022/05/13 00:18:59;;;;;;;2.30;1.60;;;9.40;99.90;8.70;100185;;;;573197;246;24107;-80
2022/05/13 00:21:29;;;;;;;1.60;1.30;;;9.40;99.90;8.70;100181;;;;573495;246;24086;-81
2022/05/13 00:23:57;;;;;;;3.63;1.07;;;9.40;99.90;8.70;100186;;;;573375;246;24142;-82
2022/05/13 00:26:25;;;;;;;2.17;1.53;;;9.40;99.90;8.70;100187;;;;573281;246;24095;-80
2022/05/13 00:28:50;;;;;;;1.70;1.20;;;9.40;99.90;8.60;100178;;;;581840;246;24104;-81
2022/05/13 00:31:21;;;;;;;2.47;1.10;;;9.40;99.90;8.60;100188;;;;573574;246;24149;-82
2022/05/13 00:33:46;;;;;;;2.37;1.30;;;9.30;99.90;8.60;100194;;;;574970;245;24131;-81
2022/05/13 00:36:13;;;;;;;1.43;1.33;;;9.30;99.90;8.60;100182;;;;573271;246;24094;-82
2022/05/13 00:38:41;;;;;;;4.67;1.50;;;9.30;99.90;8.60;100171;;;;573149;246;24094;-82
2022/05/13 00:41:09;;;;;;;4.00;1.23;;;9.30;99.90;8.50;100171;;;;573211;246;24110;-81
2022/05/13 00:43:37;;;;;;;2.33;1.50;;;9.30;99.90;8.50;100171;;;;573493;246;24083;-83
2022/05/13 00:46:05;;;;;;;4.07;1.30;;;9.20;99.90;8.50;100167;;;;573686;246;24150;-84
2022/05/13 00:48:33;;;;;;;2.63;1.57;;;9.20;99.90;8.50;100167;;;;573429;246;24086;-82
2022/05/13 00:51:05;;;;;;;4.30;1.03;;;9.20;99.90;8.40;100172;;;;573254;246;24107;-84
2022/05/13 00:53:29;;;;;;;2.30;1.23;;;9.20;99.90;8.40;100173;;;;573723;245;24078;-85
2022/05/13 00:56:00;;;;;;;2.47;1.37;;;9.20;99.90;8.40;100171;;;;583388;245;24102;-85
2022/05/13 00:58:27;;;;;;;1.60;1.47;;;9.20;99.90;8.40;100170;;;;572278;246;24101;-82
2022/05/13 01:00:53;;;;;;;2.63;1.53;;;9.10;99.90;8.40;100171;;;;582952;242;25148;-83
2022/05/13 01:03:24;;;;;;;1.57;1.00;;;9.20;99.90;8.50;100168;;;;574314;246;24114;-84
2022/05/13 01:05:48;;;;;;;4.33;1.53;;;9.20;99.90;8.50;100169;;;;576722;244;24077;-85
2022/05/13 01:08:17;;;;;;;4.00;1.20;;;9.20;99.90;8.50;100172;;;;574004;246;24143;-84
2022/05/13 01:10:45;;;;;;;3.40;1.17;;;9.20;99.90;8.50;100167;;;;574174;246;24114;-84
2022/05/13 01:13:13;;;;;;;2.23;1.00;;;9.20;99.90;8.50;100177;;;;573888;246;24075;-84
2022/05/13 01:15:41;;;;;;;5.50;1.50;;;9.20;99.90;8.40;100165;;;;573855;246;24182;-83
2022/05/13 01:18:13;;;;;;;1.37;1.17;;;9.20;99.90;8.40;100169;;;;573868;246;24098;-84
2022/05/13 01:20:50;;;;;;;2.97;1.20;;;9.20;99.90;8.40;100167;;;;582248;246;24145;-83
2022/05/13 01:23:17;;;;;;;3.90;0.97;;;9.20;99.90;8.40;100169;;;;573895;246;24145;-81
2022/05/13 01:25:48;;;;;;;1.90;1.40;;;9.10;99.90;8.30;100167;;;;574370;246;24103;-82
2022/05/13 01:28:18;;;;;;;2.47;1.50;;;9.10;99.90;8.30;100169;;;;582821;241;24097;-84
2022/05/13 01:30:47;;;;;;;1.53;1.17;;;9.00;99.90;8.20;100171;;;;573692;246;24136;-83
2022/05/13 01:33:15;;;;;;;2.43;1.10;;;9.00;99.90;8.20;100173;;;;574062;246;24102;-83
2022/05/13 01:35:43;;;;;;;3.07;1.30;;;9.00;99.90;8.20;100175;;;;573373;246;24100;-82
2022/05/13 01:38:14;;;;;;;4.33;1.03;;;9.00;99.90;8.10;100171;;;;573157;246;24096;-82
2022/05/13 01:40:39;;;;;;;2.93;1.30;;;8.90;99.90;8.10;100175;;;;573227;245;24130;-83
2022/05/13 01:43:11;;;;;;;1.50;1.13;;;8.90;99.90;8.10;100168;;;;581849;246;24108;-81
2022/05/13 01:45:35;;;;;;;3.13;1.23;;;8.90;99.90;8.10;100170;;;;573434;246;24150;-83
2022/05/13 01:48:03;;;;;;;1.93;1.17;;;8.80;99.90;8.00;100170;;;;582072;243;24084;-83
2022/05/13 01:50:31;;;;;;;2.20;1.47;;;8.80;99.90;8.00;100157;;;;573047;246;24113;-83
2022/05/13 01:53:02;;;;;;;3.20;1.70;;;8.80;99.90;8.00;100167;;;;573507;246;24073;-84
2022/05/13 01:55:28;;;;;;;5.10;1.20;;;8.70;99.90;8.00;100156;;;;572874;246;24184;-80
2022/05/13 01:57:58;;;;;;;1.40;1.30;;;8.70;99.90;8.00;100163;;;;573499;246;24153;-83
2022/05/13 02:00:24;;;;;;;1.27;1.00;;;8.70;99.90;8.00;100153;;;;575508;246;24107;-83
2022/05/13 02:05:38;;;;;;;4.77;1.40;;;8.70;99.90;8.00;100158;;;;572440;245;24156;-82
2022/05/13 02:08:07;;;;;;;3.27;1.40;;;8.80;99.90;8.00;100152;;;;574388;246;24096;-81
2022/05/13 02:10:34;;;;;;;3.60;1.10;;;8.80;99.90;8.00;100144;;;;573957;246;24118;-81
2022/05/13 02:13:02;;;;;;;5.10;1.40;;;8.80;99.90;8.10;100147;;;;573804;246;24085;-79
2022/05/13 02:15:33;;;;;;;2.20;1.20;;;8.80;99.90;8.10;100146;;;;573654;246;24172;-81
2022/05/13 02:18:00;;;;;;;2.70;1.07;;;8.90;99.90;8.20;100144;;;;573176;243;24141;-84
2022/05/13 02:20:26;;;;;;;1.47;1.30;;;8.90;99.90;8.20;100146;;;;582114;242;24106;-80
2022/05/13 02:22:53;;;;;;;2.10;1.27;;;8.90;99.90;8.20;100146;;;;573465;246;24098;-80
2022/05/13 02:25:21;;;;;;;1.77;1.20;;;9.00;99.90;8.30;100147;;;;573032;246;24286;-80
2022/05/13 02:27:49;;;;;;;2.23;1.20;;;9.00;99.90;8.30;100149;;;;573309;246;24095;-81
2022/05/13 02:30:18;;;;;;;5.07;1.43;;;9.00;99.90;8.30;100142;;;;573199;246;24145;-81
2022/05/13 02:32:45;;;;;;;2.13;1.30;;;9.10;99.90;8.30;100147;;;;573323;246;24079;-78
2022/05/13 02:35:13;;;;;;;1.43;1.10;;;9.10;99.90;8.30;100145;;;;573553;246;24086;-78
2022/05/13 02:37:44;;;;;;;1.30;1.30;;;9.10;99.90;8.30;100137;;;;582352;243;24087;-81
2022/05/13 02:40:10;;;;;;;3.40;1.53;;;9.10;99.90;8.40;100144;;;;573352;246;24165;-83
2022/05/13 02:42:38;;;;;;;3.07;1.10;;;9.10;99.90;8.40;100149;;;;582320;243;24127;-83
2022/05/13 02:45:09;;;;;;;0.90;0.90;;;9.10;99.90;8.40;100147;;;;573622;246;24117;-83
2022/05/13 02:47:38;;;;;;;5.03;1.37;;;9.20;99.90;8.50;100147;;;;573778;246;24100;-83
2022/05/13 02:50:20;;;;;;;3.03;1.50;;;9.20;99.90;8.50;100144;;;;573084;246;24157;-81
2022/05/13 02:52:47;;;;;;;4.50;1.33;;;9.30;99.90;8.60;100148;;;;573387;246;24096;-82
2022/05/13 02:55:16;;;;;;;2.47;1.63;;;9.30;99.90;8.60;100153;;;;573469;246;24114;-83
2022/05/13 02:57:43;;;;;;;3.53;1.80;;;9.30;99.90;8.60;100156;;;;573325;246;24085;-83
2022/05/13 03:00:12;;;;;;;2.73;1.90;;;9.30;99.90;8.60;100155;;;;573430;246;24100;-80
2022/05/13 03:02:44;;;;;;;1.07;1.03;;;9.30;99.90;8.60;100164;;;;573231;246;24099;-81
2022/05/13 03:05:11;;;;;;;3.17;1.10;;;9.40;99.90;8.70;100164;;;;581800;246;24206;-83
2022/05/13 03:07:36;;;;;;;2.93;1.27;;;9.40;99.90;8.70;100161;;;;573471;246;24087;-81
2022/05/13 03:10:05;;;;;;;1.80;1.50;;;9.50;99.90;8.80;100156;;;;573715;246;24109;-83
2022/05/13 03:12:31;;;;;;;2.40;1.20;;;9.60;99.90;8.90;100157;;;;582341;246;24083;-81
2022/05/13 03:14:59;;;;;;;1.87;1.67;;;9.60;99.90;8.90;100159;;;;573605;246;24138;-80
2022/05/13 03:17:28;;;;;;;1.27;1.23;;;9.70;99.90;9.00;100154;;;;574563;245;24105;-81
2022/05/13 03:19:55;;;;;;;1.80;0.90;;;9.70;99.90;9.10;100158;;;;574624;246;24087;-81
2022/05/13 03:22:26;;;;;;;2.47;1.30;;;9.80;99.90;9.20;100154;;;;583136;246;24134;-82
2022/05/13 03:24:54;;;;;;;4.93;1.10;;;9.90;99.90;9.20;100151;;;;573827;246;24083;-84
2022/05/13 03:27:19;;;;;;;1.83;1.40;;;9.90;99.90;9.20;100159;;;;573652;246;24122;-83
2022/05/13 03:29:47;;;;;;;4.80;1.20;;;10.00;99.90;9.30;100146;;;;574060;246;24086;-81
2022/05/13 03:32:15;;;;;;;1.00;1.00;;;10.00;99.90;9.30;100145;;;;574196;246;24127;-82
2022/05/13 03:34:42;;;;;;;2.10;1.10;;;10.00;99.90;9.40;100146;;;;574074;246;24082;-83
2022/05/13 03:37:10;;;;;;;3.13;1.43;;;10.10;99.90;9.50;100142;;;;573516;246;24083;-82
2022/05/13 03:39:38;;;;;;;1.47;1.17;;;10.20;99.90;9.50;100142;;;;573397;246;24096;-83
2022/05/13 03:42:10;;;;;;;1.33;1.17;;;10.20;99.90;9.60;100142;;;;573595;246;24130;-82
2022/05/13 03:44:36;;;;;;;1.77;1.30;;;10.50;99.90;9.90;100137;;;;573325;246;24132;-82
2022/05/13 03:47:03;;;;;;;2.77;1.20;;;10.50;99.90;10.50;100139;;;;573769;246;24166;-81
2022/05/13 03:49:34;;;;;;;2.90;1.30;;;11.10;99.90;11.30;100141;;;;573407;246;24081;-83
2022/05/13 03:51:59;;;;;;;1.97;1.40;;;11.90;99.90;11.90;100135;;;;581727;246;24107;-82
2022/05/13 03:54:27;;;;;;;3.30;1.20;;;12.50;99.90;12.60;100141;;;;572146;246;24087;-83
2022/05/13 03:56:59;;;;;;;3.47;1.20;;;13.20;99.90;13.50;100141;;;;573177;246;24072;-84
2022/05/13 03:59:25;;;;;;;1.20;0.97;;;14.00;99.90;14.40;100150;;;;572939;246;24145;-85
2022/05/13 04:01:50;;;;;;;3.93;1.70;;;15.00;99.90;15.30;100144;;;;572886;246;24135;-84
2022/05/13 04:04:22;;;;;;;1.70;0.90;;;16.80;99.90;16.20;100154;;;;582172;246;24131;-84
2022/05/13 04:09:33;;;;;;;1.87;1.10;;;17.60;99.90;17.70;100158;;;;573200;246;24111;-83
2022/05/13 04:17:33;;;;;;;1.30;1.10;;;20.20;94.20;20.00;100162;;;;572797;246;24179;-82
2022/05/13 04:20:02;;;;;;;4.50;1.20;;;20.90;91.30;20.50;100158;;;;572918;246;24121;-81
2022/05/13 04:22:30;;;;;;;2.47;1.20;;;21.50;87.40;21.00;100157;;;;572733;246;24077;-82
2022/05/13 04:24:57;;;;;;;1.43;1.23;;;22.00;83.20;21.60;100160;;;;573033;246;24166;-82
2022/05/13 04:27:24;;;;;;;2.03;1.30;;;22.60;78.20;22.20;100160;;;;572927;246;24077;-81
2022/05/13 04:29:52;;;;;;;3.60;1.30;;;23.20;74.30;22.60;100151;;;;574276;246;24119;-80
2022/05/13 04:32:20;;;;;;;2.50;1.27;;;23.70;71.90;23.20;100159;;;;574000;246;24107;-82
2022/05/13 04:34:48;;;;;;;1.43;1.20;;;24.30;69.20;23.70;100160;;;;573600;246;24143;-81
2022/05/13 04:37:16;;;;;;;4.37;1.47;;;24.80;66.60;24.20;100159;;;;573988;246;23144;-83
2022/05/13 04:39:44;;;;;;;2.40;1.20;;;25.30;63.40;24.50;100172;;;;573803;246;24053;-82
2022/05/13 04:44:58;;;;;;;3.50;1.27;;;26.10;59.40;25.60;100169;;;;573787;246;23077;-81
2022/05/13 04:50:13;;;;;;;4.97;1.70;;;27.10;56.20;26.70;100176;;;;573280;246;23089;-81
2022/05/13 04:52:41;;;;;;;3.00;1.40;;;27.70;54.60;26.90;100182;;;;573628;242;24116;-80
2022/05/13 04:55:09;;;;;;;4.33;1.37;;;28.00;53.70;27.20;100191;;;;573644;246;23093;-81
2022/05/13 04:57:37;;;;;;;2.97;1.53;;;28.30;52.80;27.60;100192;;;;575016;240;24135;-80
2022/05/13 05:00:05;;;;;;;4.17;1.50;;;28.60;52.60;27.60;100190;;;;584260;242;24056;-80
2022/05/13 05:02:33;;;;;;;6.70;1.20;;;28.70;51.50;27.40;100189;;;;588323;242;23149;-78
2022/05/13 05:05:04;;;;;;;2.40;1.27;;;28.70;50.80;27.20;100193;;;;584274;242;23088;-81
2022/05/13 05:07:28;;;;;;;2.43;1.30;;;28.30;50.90;27.40;100184;;;;584113;242;23072;-79
2022/05/13 05:09:57;;;;;;;2.80;1.37;;;28.30;50.80;27.60;100195;;;;593251;242;23072;-80
2022/05/13 05:12:24;;;;;;;7.80;1.50;;;28.50;50.90;27.60;100193;;;;584679;242;23069;-80
2022/05/13 05:14:53;;;;;;;4.23;1.57;;;27.50;50.70;26.30;100192;;;;589205;242;23083;-78
2022/05/13 05:17:22;;;;;;;4.97;1.17;;;26.20;52.40;24.90;100202;;;;584167;242;24125;-79
2022/05/13 05:19:49;;;;;;;4.10;1.33;;;26.10;52.30;23.60;100199;;;;584352;242;23096;-80
2022/05/13 05:22:17;;;;;;;3.53;1.40;;;24.80;54.50;22.50;100203;;;;593401;242;24061;-80
2022/05/13 05:24:49;;;;;;;2.97;1.77;;;23.70;56.80;21.70;100197;;;;588184;242;23108;-80
2022/05/13 05:27:13;;;;;;;3.30;1.40;;;22.80;58.70;21.10;100201;;;;584413;242;24057;-76
2022/05/13 05:29:43;;;;;;;3.73;1.20;;;22.00;60.30;20.50;100202;;;;573857;246;24122;-81
2022/05/13 05:32:09;;;;;;;6.27;1.30;;;21.40;62.00;19.90;100198;;;;584836;242;24042;-79
2022/05/13 05:34:37;;;;;;;4.20;1.33;;;20.80;63.90;19.30;100203;;;;584312;242;24042;-81
2022/05/13 05:37:05;;;;;;;2.33;1.40;;;20.20;65.70;19.10;100198;;;;584407;242;24078;-81
2022/05/13 05:39:33;;;;;;;1.47;1.00;;;19.80;67.50;18.70;100201;;;;585116;239;24065;-79
2022/05/13 05:42:01;;;;;;;4.37;1.10;;;19.40;68.70;18.40;100208;;;;586112;241;24110;-81
2022/05/13 05:44:30;;;;;;;1.23;1.03;;;18.80;70.90;18.20;100200;;;;585698;241;24037;-82
2022/05/13 05:47:01;;;;;;;1.40;1.00;;;18.60;72.20;17.90;100209;;;;585535;241;24084;-81
2022/05/13 05:49:26;;;;;;;5.17;1.33;;;18.60;72.20;18.10;100202;;;;585129;241;23070;-81
2022/05/13 05:51:54;;;;;;;2.40;1.00;;;18.60;73.40;18.70;100208;;;;581569;241;24112;-77
2022/05/13 05:57:16;;;;;;;2.87;1.37;;;19.40;71.90;19.50;100203;;;;593795;241;24055;-79
2022/05/13 05:59:49;;;;;;;5.27;1.10;;;21.50;69.20;21.30;100198;;;;584424;242;24107;-80
2022/05/13 06:02:13;;;;;;;1.40;0.80;;;21.40;69.10;22.20;100204;;;;584036;242;23105;-76
2022/05/13 06:04:41;;;;;;;3.73;1.10;;;22.40;65.30;23.80;100205;;;;584489;242;24102;-78
2022/05/13 06:07:09;;;;;;;4.67;1.20;;;23.90;62.40;25.80;100216;;;;584367;242;24039;-77
2022/05/13 06:09:37;;;;;;;1.00;1.00;;;25.70;58.40;27.20;100215;;;;584543;242;24085;-80
2022/05/13 06:12:08;;;;;;;2.97;1.57;;;27.40;54.50;27.30;100220;;;;584218;242;23071;-79
2022/05/13 06:14:33;;;;;;;3.43;1.00;;;27.50;52.50;26.50;100219;;;;584317;242;23094;-77
2022/05/13 06:17:01;;;;;;;3.83;1.37;;;27.40;52.50;26.80;100215;;;;584321;242;24058;-77
2022/05/13 06:19:29;;;;;;;2.77;1.30;;;27.40;52.60;28.00;100207;;;;584126;242;23078;-80
2022/05/13 06:21:57;;;;;;;2.93;1.40;;;28.30;51.20;29.50;100215;;;;584173;242;23233;-80
2022/05/13 06:24:25;;;;;;;1.80;1.00;;;29.70;49.40;30.90;100220;;;;581083;242;23127;-79
2022/05/13 06:26:53;;;;;;;3.35;1.25;;;31.10;47.90;32.00;100217;;;;581194;242;23085;-78
2022/05/13 06:29:21;;;;;;;5.62;1.35;;;32.40;45.40;32.90;100218;;;;581010;242;23062;-77
2022/05/13 06:31:52;;;;;;;2.12;1.20;;;33.40;44.10;33.80;100224;;;;584057;242;23090;-79
2022/05/13 06:34:20;;;;;;;3.70;1.65;;;34.40;43.00;33.00;100230;;;;592932;242;23125;-79
2022/05/13 06:36:45;;;;;;;1.62;1.00;;;33.90;41.90;31.70;100226;;;;583454;242;24086;-82
2022/05/13 06:39:13;;;;;;;2.22;1.08;;;32.50;42.60;31.80;100228;;;;581526;242;23090;-80
2022/05/13 06:41:42;;;;;;;4.57;1.40;;;33.00;42.40;32.70;100208;;;;576586;244;23085;-79
2022/05/13 06:44:10;;;;;;;4.37;1.42;;;32.90;42.30;33.60;100219;;;;576675;244;24137;-78
2022/05/13 06:46:39;;;;;;;1.95;1.05;;;33.90;41.10;34.70;100212;;;;579812;244;23072;-80
2022/05/13 06:49:10;;;;;;;5.82;1.27;;;34.90;39.90;35.30;100217;;;;588732;240;23081;-82
2022/05/13 06:51:40;;;;;;;2.00;1.12;;;35.50;39.70;34.70;100227;;;;580394;243;23056;-78
2022/05/13 06:54:06;;;;;;;2.62;1.37;;;35.50;38.20;33.70;100219;;;;577745;243;23118;-80
2022/05/13 06:56:32;;;;;;;4.72;2.67;;;34.70;38.90;32.40;100231;;;;577650;244;24075;-81
2022/05/13 06:59:00;;;;;;;3.30;1.48;;;33.70;39.80;30.90;100229;;;;580398;244;24075;-78
2022/05/13 07:01:28;;;;;;;7.10;1.37;;;32.20;41.60;29.50;100220;;;;589278;243;23076;-81
2022/05/13 07:03:56;;;;;;;3.65;1.42;;;30.70;43.10;28.80;100220;;;;580267;244;24079;-80
2022/05/13 07:06:25;;;;;;;4.80;1.65;;;29.80;45.40;29.40;100213;;;;577263;244;23111;-81
2022/05/13 07:08:54;;;;;;;3.55;1.23;;;30.80;43.70;30.90;100211;;;;580242;244;24086;-79
2022/05/13 07:11:22;;;;;;;4.05;1.62;;;30.80;43.60;32.60;100208;;;;580018;244;23061;-80
2022/05/13 07:13:49;;;;;;;2.15;1.30;;;32.40;42.10;34.20;100217;;;;576512;244;23105;-78
2022/05/13 07:16:17;;;;;;;3.70;1.12;;;34.10;40.40;35.20;100222;;;;576644;244;23139;-79
2022/05/13 07:18:47;;;;;;;5.70;1.17;;;35.20;39.00;36.10;100209;;;;576475;244;23083;-76
2022/05/13 07:21:17;;;;;;;7.20;1.23;;;37.00;36.80;36.70;100214;;;;576998;244;23059;-76
2022/05/13 07:23:46;;;;;;;5.00;1.27;;;37.70;36.30;37.50;100211;;;;579697;244;24096;-77
2022/05/13 07:26:11;;;;;;;3.60;1.30;;;38.30;35.70;38.00;100211;;;;579824;244;23070;-76
2022/05/13 07:28:40;;;;;;;3.60;1.23;;;38.70;35.80;38.30;100220;;;;579735;244;23050;-76
2022/05/13 07:31:08;;;;;;;4.20;1.40;;;38.60;35.00;38.30;100220;;;;576638;244;24118;-79
2022/05/13 07:33:36;;;;;;;2.83;1.60;;;38.80;34.70;38.60;100218;;;;579700;244;23080;-81
2022/05/13 07:36:04;;;;;;;3.75;1.52;;;39.00;34.50;39.10;100225;;;;576648;244;24116;-78
2022/05/13 07:38:35;;;;;;;9.55;6.28;;;39.30;33.70;39.70;100224;;;;579685;244;23069;-79
2022/05/13 07:41:19;;;;;;;5.57;1.60;;;40.00;33.70;40.40;100226;;;;579714;244;23069;-79
2022/05/13 07:43:46;;;;;;;6.28;1.92;;;41.30;31.60;40.90;100234;;;;579656;244;23103;-78
2022/05/13 07:46:18;;;;;;;5.82;1.70;;;41.20;31.50;41.70;100224;;;;579694;244;23049;-77
2022/05/13 07:48:42;;;;;;;4.00;1.60;;;41.90;31.30;42.20;100231;;;;584171;240;23073;-77
2022/05/13 07:51:14;;;;;;;3.62;1.20;;;42.60;31.00;42.50;100230;;;;579715;244;23050;-77
2022/05/13 07:53:38;;;;;;;5.45;1.30;;;42.90;30.40;42.90;100225;;;;579609;244;23109;-76
2022/05/13 07:56:06;;;;;;;2.25;1.10;;;43.30;30.00;42.70;100225;;;;588532;243;24098;-78
2022/05/13 07:58:34;;;;;;;3.00;1.25;;;43.20;30.10;43.20;100220;;;;588554;244;23112;-76
2022/05/13 08:01:10;;;;;;;5.50;1.17;;;43.60;29.90;42.80;100217;;;;576560;244;24093;-76
2022/05/13 08:03:43;;;;;;;1.48;1.37;;;43.50;29.40;41.80;100225;;;;580621;243;24084;-78
2022/05/13 08:06:17;;;;;;;4.20;1.48;;;42.80;29.70;39.70;100224;;;;580597;243;24076;-76
2022/05/13 08:08:40;;;;;;;3.37;1.25;;;41.20;30.10;39.30;100224;;;;579517;244;23072;-81
2022/05/13 08:11:12;;;;;;;1.40;1.20;;;40.20;31.30;38.40;100215;;;;580286;244;23074;-78
2022/05/13 08:13:36;;;;;;;2.90;1.40;;;39.40;31.70;36.50;100214;;;;579581;244;23119;-77
2022/05/13 08:16:07;;;;;;;5.28;1.45;;;37.90;32.10;34.80;100222;;;;576917;244;24128;-77
2022/05/13 08:18:38;;;;;;;8.20;1.60;;;36.20;33.60;33.60;100222;;;;579901;244;23081;-77
2022/05/13 08:21:07;;;;;;;3.25;1.30;;;34.90;35.60;33.00;100215;;;;579496;244;23069;-76
2022/05/13 08:23:31;;;;;;;3.47;1.00;;;33.90;36.20;32.80;100211;;;;579948;244;24071;-79
2022/05/13 08:26:03;;;;;;;1.62;1.10;;;33.80;36.90;33.80;100217;;;;577413;244;23067;-77
2022/05/13 08:28:30;;;;;;;4.20;1.70;;;33.80;36.90;34.80;100214;;;;580188;244;23085;-78
2022/05/13 08:30:55;;;;;;;3.83;1.30;;;34.80;36.40;36.20;100225;;;;580270;244;23061;-77
2022/05/13 08:33:26;;;;;;;4.95;1.05;;;36.10;35.00;37.50;100212;;;;580175;244;23060;-79
2022/05/13 08:35:51;;;;;;;3.62;1.10;;;37.50;34.10;38.80;100219;;;;579735;244;23057;-78
2022/05/13 08:38:21;;;;;;;1.85;1.20;;;39.20;32.20;38.90;100220;;;;580006;244;23061;-78
2022/05/13 08:40:56;;;;;;;3.12;1.30;;;39.40;31.60;38.80;100213;;;;579706;244;23131;-78
2022/05/13 08:43:23;;;;;;;6.03;1.77;;;39.40;31.60;37.20;100212;;;;576740;244;24119;-77
2022/05/13 08:45:56;;;;;;;2.28;1.25;;;38.40;32.50;36.20;100218;;;;579279;244;23088;-77
2022/05/13 08:48:30;;;;;;;6.43;1.40;;;37.60;32.90;34.40;100211;;;;579643;244;23061;-78
2022/05/13 08:51:04;;;;;;;4.50;1.17;;;36.00;32.90;32.80;100218;;;;579275;244;23072;-76
2022/05/13 08:53:34;;;;;;;4.10;1.08;;;34.40;33.70;31.50;100221;;;;578456;244;23067;-78
2022/05/13 08:56:04;;;;;;;2.80;1.08;;;31.60;36.50;30.40;100221;;;;579081;244;23061;-79
2022/05/13 08:58:40;;;;;;;4.97;1.15;;;31.50;36.40;29.30;100213;;;;579100;244;24094;-78
2022/05/13 09:01:09;;;;;;;5.40;1.08;;;30.40;37.60;28.20;100208;;;;579760;244;23065;-78
2022/05/13 09:03:41;;;;;;;3.60;1.00;;;29.30;38.80;27.50;100212;;;;579295;244;23060;-76
2022/05/13 09:06:33;;;;;;;1.50;0.80;;;28.40;39.80;27.10;100214;;;;579309;244;23104;-77
2022/05/13 09:09:04;;;;;;;1.83;1.03;;;27.90;40.60;26.50;100210;;;;579439;244;24074;-76
2022/05/13 09:11:56;;;;;;;7.70;1.00;;;27.30;41.50;25.90;100209;;;;579337;244;23072;-77
2022/05/13 09:14:52;;;;;;;4.53;0.80;;;26.60;42.10;25.00;100197;;;;576977;243;24097;-78
2022/05/13 09:17:28;;;;;;;3.30;1.10;;;25.10;44.30;24.40;100204;;;;580733;243;23093;-78
2022/05/13 09:20:02;;;;;;;4.17;1.20;;;25.00;44.30;24.70;100203;;;;577229;244;24059;-76
2022/05/13 09:22:45;;;;;;;6.47;0.93;;;25.10;45.20;25.90;100205;;;;576940;244;23047;-78
2022/05/13 09:25:25;;;;;;;1.60;0.97;;;25.90;45.20;27.00;100192;;;;580209;244;24053;-77
2022/05/13 09:28:02;;;;;;;2.10;1.43;;;27.20;43.40;27.60;100200;;;;575832;244;24067;-76
2022/05/13 09:30:30;;;;;;;2.33;1.00;;;27.80;42.00;29.20;100197;;;;579909;244;24127;-77
2022/05/13 09:32:58;;;;;;;4.60;1.33;;;29.30;41.20;30.10;100195;;;;579882;244;23064;-78
2022/05/13 09:35:31;;;;;;;2.28;1.17;;;30.50;39.20;31.00;100202;;;;579736;244;23083;-78
2022/05/13 09:37:59;;;;;;;2.42;1.10;;;31.40;38.60;31.40;100195;;;;574618;244;46033;-78
2022/05/13 09:40:31;;;;;;;2.67;1.15;;;32.10;36.90;31.40;100185;;;;578890;244;23094;-77
2022/05/13 09:42:57;;;;;;;9.25;1.23;;;32.40;37.30;31.60;100175;;;;588028;244;24067;-78
2022/05/13 09:45:36;;;;;;;3.12;1.20;;;32.80;36.80;32.20;100174;;;;579574;244;23090;-77
2022/05/13 09:48:13;;;;;;;2.95;1.30;;;33.30;36.30;32.50;100174;;;;589028;243;23070;-79
2022/05/13 09:50:50;;;;;;;8.00;1.42;;;33.20;36.20;31.60;100188;;;;578847;244;23088;-77
2022/05/13 09:53:21;;;;;;;4.45;1.20;;;32.80;36.30;30.40;100177;;;;574465;244;35082;-78
2022/05/13 09:55:49;;;;;;;5.45;1.35;;;31.70;37.30;29.70;100178;;;;576077;244;23105;-77
2022/05/13 09:58:37;;;;;;;0.82;0.80;;;30.90;38.50;28.80;100181;;;;579394;244;23100;-80
2022/05/13 10:01:18;;;;;;;7.40;1.40;;;29.90;39.10;28.20;100176;;;;579184;244;23104;-79
2022/05/13 10:03:37;;;;;;;0.98;0.90;;;29.10;40.30;28.30;100169;;;;578102;244;23074;-79
2022/05/13 10:06:17;;;;;;;1.27;0.93;;;28.90;41.10;28.80;100176;;;;579097;244;23088;-80
2022/05/13 10:14:40;;;;;;;6.18;1.20;;;29.80;40.00;29.00;100165;;;;579873;244;23176;-79
2022/05/13 10:17:24;;;;;;;4.87;1.23;;;29.70;39.70;28.60;100159;;;;579378;244;24095;-81
2022/05/13 10:19:58;;;;;;;3.83;1.08;;;29.40;39.70;28.50;100160;;;;579440;244;23074;-80
2022/05/13 10:22:53;;;;;;;2.42;1.05;;;29.10;40.20;28.50;100157;;;;578780;244;24065;-75
2022/05/13 10:25:32;;;;;;;3.37;1.23;;;29.10;40.10;28.50;100155;;;;588067;244;24123;-80
2022/05/13 10:28:12;;;;;;;1.83;0.93;;;29.10;40.20;28.10;100153;;;;581093;243;24140;-79
2022/05/13 10:31:02;;;;;;;4.00;1.20;;;28.80;40.30;27.60;100156;;;;580445;244;23088;-80
2022/05/13 10:33:51;;;;;;;3.03;1.00;;;28.40;40.20;27.20;100160;;;;580155;244;24063;-76
2022/05/13 10:36:27;;;;;;;2.33;1.20;;;27.90;40.90;26.90;100154;;;;580030;244;23155;-76
2022/05/13 10:39:13;;;;;;;3.47;1.00;;;27.60;41.30;26.60;100155;;;;578894;244;23076;-77
2022/05/13 10:41:49;;;;;;;1.67;0.83;;;27.20;42.00;26.40;100151;;;;569840;244;23096;-77
2022/05/13 10:44:51;;;;;;;5.27;1.10;;;26.90;42.60;26.30;100147;;;;579920;244;23191;-76
2022/05/13 10:47:25;;;;;;;2.87;1.40;;;26.80;43.10;26.20;100155;;;;580068;244;23076;-80
2022/05/13 10:49:53;;;;;;;3.37;1.07;;;26.70;43.20;26.30;100148;;;;579370;244;23138;-77
2022/05/13 10:52:49;;;;;;;2.47;0.87;;;26.60;43.10;26.10;100145;;;;576794;244;23096;-77
2022/05/13 10:55:38;;;;;;;4.07;1.03;;;26.60;42.80;25.80;100147;;;;576307;244;23151;-76
2022/05/13 10:58:42;;;;;;;1.73;0.80;;;26.30;43.00;25.40;100147;;;;576421;244;23174;-76
2022/05/13 11:01:16;;;;;;;2.23;1.00;;;26.00;43.60;25.20;100160;;;;579666;244;23059;-77
2022/05/13 11:04:09;;;;;;;3.73;1.17;;;25.70;44.30;25.20;100147;;;;578635;244;24073;-76
2022/05/13 11:06:39;;;;;;;1.67;1.27;;;25.50;44.10;25.00;100153;;;;575983;244;23111;-77
2022/05/13 11:09:06;;;;;;;7.00;1.20;;;25.50;44.00;24.60;100148;;;;579048;244;24072;-75
2022/05/13 11:11:39;;;;;;;5.50;1.67;;;25.20;44.40;24.10;100158;;;;578614;244;23063;-76
2022/05/13 11:14:44;;;;;;;1.77;1.07;;;24.80;44.90;23.30;100159;;;;579125;244;24075;-77
2022/05/13 11:17:30;;;;;;;5.50;1.30;;;23.40;46.70;22.60;100163;;;;579789;244;24076;-76
2022/05/13 11:20:28;;;;;;;3.90;1.13;;;23.30;46.60;22.10;100165;;;;570024;244;24093;-76
2022/05/13 11:23:18;;;;;;;2.00;1.07;;;22.40;48.50;21.80;100163;;;;579088;244;23146;-77
2022/05/13 11:26:14;;;;;;;2.73;1.10;;;22.30;48.40;21.60;100158;;;;579760;243;24138;-78
2022/05/13 11:29:06;;;;;;;3.20;1.30;;;22.20;49.10;21.60;100146;;;;579541;244;24169;-80
2022/05/13 11:31:47;;;;;;;10.63;6.27;;;22.10;49.40;21.70;100154;;;;587802;244;24126;-78
2022/05/13 11:34:54;;;;;;;11.00;7.90;;;22.10;49.20;21.90;100156;;;;579351;244;24064;-77
2022/05/13 11:37:25;;;;;;;11.50;6.77;;;22.30;49.40;22.20;100148;;;;579744;242;24086;-77
2022/05/13 11:39:50;;;;;;;6.33;5.73;;;22.60;49.00;22.20;100149;;;;580681;243;24115;-75
2022/05/13 11:46:01;;;;;;;4.33;1.43;;;22.80;48.70;22.20;100138;;;;589407;244;24101;-76
2022/05/13 11:48:38;;;;;;;6.30;1.50;;;22.70;48.80;21.80;100136;;;;577254;244;24053;-76
2022/05/13 11:51:09;;;;;;;2.50;1.40;;;22.10;49.90;21.50;100146;;;;579767;244;24082;-77
2022/05/13 11:54:02;;;;;;;2.40;1.37;;;22.10;49.80;21.10;100149;;;;579740;244;24081;-77
2022/05/13 11:56:30;;;;;;;0.93;0.90;;;21.80;50.30;20.40;100147;;;;579843;244;24047;-76
2022/05/13 11:59:09;;;;;;;4.27;1.60;;;21.10;50.90;20.00;100144;;;;579383;244;24118;-76
2022/05/13 12:01:40;;;;;;;3.13;1.53;;;20.70;51.90;19.70;100140;;;;579391;244;24064;-77